Nearby METAR Reports

 

KSJC - San Jose, California, USA
Distance from station: NE 14km
Actualización: 17/11/2019 01:53
Muy nuboso
Muy nuboso
 Viento del calm
Viento: Calma
Temperatura: 18°C
Rocío: 12°C
Humedad: 68%
Barómetro: 1018.3 hPa
Clouds: Muy nuboso
Visibility: 16 km
Cloud details: Parcialmente nuboso 3048 m
Muy nuboso 4877 m
2019/11/17 00:53 KSJC 170053Z 00000KT 10SM SCT100 BKN160 18/12 A3007 RMK AO2 SLP181 HZ FEW030 T01830117 $
KNUQ - Moffett Nas/Mtn, California, USA
Distance from station: N 14km
Actualización: 17/11/2019 01:56

 
Barómetro: 1018.6 hPa
2019/11/17 00:56 KNUQ 170056Z A3008 RMK AO2 SLP190 PWINO $
 
KPAO - Palo Alto, California, USA
Distance from station: NNO 23km
Actualización: 16/11/2019 23:47
NOT Current
Parcialmente nuboso
Parcialmente nuboso
 Viento del N
Viento: N 15 km/h
Temperatura: 17°C
Rocío: 14°C
Humedad: 83%
Barómetro: 1018.3 hPa
Clouds: Parcialmente nuboso
Visibility: 16 km
Cloud details: Parcialmente nuboso 6096 m
2019/11/16 22:47 KPAO 162247Z 35008KT 10SM SCT200 17/14 A3007
KRHV - San Jose/Reid, California, USA
Distance from station: ENE 19km
Actualización: 17/11/2019 01:47
Muy nuboso
Muy nuboso
 Viento del NO
Viento: NO 9 km/h
Temperatura: 19°C
Rocío: 10°C
Humedad: 56%
Barómetro: 1018.3 hPa
Clouds: Muy nuboso
Visibility: 16 km
Cloud details: Muy nuboso 4877 m
2019/11/17 00:47 KRHV 170047Z 31005KT 10SM BKN160 19/10 A3007
 
KOAK - Oakland, California, USA
Distance from station: NNO 50km
Actualización: 17/11/2019 01:53
Muy nuboso
Muy nuboso
 Viento del ONO
Viento: ONO 13 km/h
Temperatura: 16°C
Rocío: 11°C
Humedad: 72%
Barómetro: 1018.6 hPa
Clouds: Muy nuboso
Visibility: 16 km
Cloud details: Few Clouds 244 m
Muy nuboso 6096 m
Muy nuboso 7620 m
2019/11/17 00:53 KOAK 170053Z 30007KT 10SM FEW008 BKN200 BKN250 16/11 A3008 RMK AO2 SLP186 T01560111
KSQL - San Carlos Airpo, California, USA
Distance from station: NO 34km
Actualización: 17/11/2019 01:55
Muy nuboso
Muy nuboso
 Viento del varies
Viento: varies 6 km/h
Temperatura: 17°C
Rocío: 12°C
Humedad: 73%
Barómetro: 1019 hPa
Clouds: Muy nuboso
Visibility: 16 km
Cloud details: Muy nuboso 6096 m
2019/11/17 00:55 KSQL 170055Z VRB03KT 10SM BKN200 17/12 A3009
 
KSFO - San Francisco, California, USA
Distance from station: NO 49km
Actualización: 17/11/2019 01:56
Muy nuboso
Muy nuboso
 Viento del ONO
Viento: ONO 24 km/h
Temperatura: 13°C
Rocío: 10°C
Humedad: 82%
Barómetro: 1018.3 hPa
Clouds: Muy nuboso
Visibility: 14 km
Cloud details: Few Clouds 183 m
Parcialmente nuboso 5486 m
Muy nuboso 6096 m
2019/11/17 00:56 KSFO 170056Z 29013KT 9SM FEW006 SCT180 BKN200 13/10 A3007 RMK AO2 SLP183 T01330100 $
KE16 - San Martin, California, USA
Distance from station: ESE 43km
Actualización: 14/11/2019 10:35
NOT Current
Cubierto
Cubierto
 Viento del SE
Viento: SE 11 km/h
Temperatura: 12°C
Rocío: 10°C
Humedad: 88%
Barómetro: 1017.6 hPa
Clouds: Cubierto
Visibility: 16 km
Cloud details: Cubierto 427 m
2019/11/14 09:35 KE16 140935Z AUTO 13006KT 10SM OVC014 12/10 A3005 RMK AO2
 
KWVI - Watsonville, California, USA
Distance from station: SSE 44km
Actualización: 17/11/2019 01:53
Despejado
Despejado
 Viento del SSE
Viento: SSE 6 km/h
Temperatura: 17°C
Rocío: 12°C
Humedad: 73%
Barómetro: 1017.9 hPa
Clouds: Despejado
Visibility: 16 km
2019/11/17 00:53 KWVI 170053Z AUTO 15003KT 10SM CLR 17/12 A3006 RMK AO2 SLP179 T01720117
KHAF - Half Moon Bay, California, USA
Distance from station: ONO 50km
Actualización: 17/11/2019 02:00
Mist, Muy nuboso
Mist, Muy nuboso
 Viento del N
Viento: N 7 km/h
Temperatura: 11°C
Rocío: 10°C
Humedad: 94%
Barómetro: 1019 hPa
Resumen: Mist
Clouds: Muy nuboso
Visibility: 8 km
Cloud details: Muy nuboso 91 m
2019/11/17 01:00 KHAF 170100Z AUTO 36004KT 5SM BR BKN003 11/10 A3009 RMK AO2
 
KHWD - Hayward, California, USA
Distance from station: N 44km
Actualización: 17/11/2019 01:54
Despejado
Despejado
 Viento del O
Viento: O 6 km/h
Temperatura: 16°C
Rocío: 12°C
Humedad: 77%
Barómetro: 1018.6 hPa
Clouds: Despejado
Visibility: 13 km
2019/11/17 00:54 KHWD 170054Z 26003KT 8SM CLR 16/12 A3008 RMK AO2 SLP194 T01610122
KLVK - Livermore, California, USA
Distance from station: NNE 51km
Actualización: 17/11/2019 01:53
Despejado
Despejado
 Viento del calm
Viento: Calma
Temperatura: 20°C
Rocío: 6°C
Humedad: 40%
Barómetro: 1018.3 hPa
Clouds: Despejado
Visibility: 16 km
2019/11/17 00:53 KLVK 170053Z 00000KT 10SM CLR 20/06 A3007 RMK AO2 SLP180 T02000056 $